sensor_id;sensor_type;location;lat;lon;timestamp;P1;durP1;ratioP1;P2;durP2;ratioP2
16039;SDS011;8124;48.634;8.120;2023-07-13T00:02:01;44.13;;;39.33;;
16039;SDS011;8124;48.634;8.120;2023-07-13T00:07:05;44.10;;;39.38;;
16039;SDS011;8124;48.634;8.120;2023-07-13T00:12:22;44.10;;;39.38;;
16039;SDS011;8124;48.634;8.120;2023-07-13T00:17:26;44.95;;;39.53;;
16039;SDS011;8124;48.634;8.120;2023-07-13T00:22:31;44.22;;;39.35;;
16039;SDS011;8124;48.634;8.120;2023-07-13T00:27:34;44.42;;;39.42;;
16039;SDS011;8124;48.634;8.120;2023-07-13T00:32:37;44.05;;;39.35;;
16039;SDS011;8124;48.634;8.120;2023-07-13T00:37:42;48.72;;;39.42;;
16039;SDS011;8124;48.634;8.120;2023-07-13T00:42:45;44.05;;;39.25;;
16039;SDS011;8124;48.634;8.120;2023-07-13T00:47:49;45.13;;;39.20;;
16039;SDS011;8124;48.634;8.120;2023-07-13T00:52:54;44.08;;;39.28;;
16039;SDS011;8124;48.634;8.120;2023-07-13T00:57:59;45.88;;;39.15;;
16039;SDS011;8124;48.634;8.120;2023-07-13T01:03:03;44.28;;;39.30;;
16039;SDS011;8124;48.634;8.120;2023-07-13T01:08:08;44.85;;;39.58;;
16039;SDS011;8124;48.634;8.120;2023-07-13T01:13:11;44.45;;;39.65;;
16039;SDS011;8124;48.634;8.120;2023-07-13T01:18:14;44.40;;;39.47;;
16039;SDS011;8124;48.634;8.120;2023-07-13T01:23:21;43.63;;;38.85;;
16039;SDS011;8124;48.634;8.120;2023-07-13T01:28:25;44.35;;;39.22;;
16039;SDS011;8124;48.634;8.120;2023-07-13T01:33:30;44.00;;;39.15;;
16039;SDS011;8124;48.634;8.120;2023-07-13T01:38:34;44.03;;;39.17;;
16039;SDS011;8124;48.634;8.120;2023-07-13T01:43:38;44.35;;;39.03;;
16039;SDS011;8124;48.634;8.120;2023-07-13T01:48:41;44.03;;;38.88;;
16039;SDS011;8124;48.634;8.120;2023-07-13T01:53:45;46.67;;;39.03;;
16039;SDS011;8124;48.634;8.120;2023-07-13T01:58:48;45.55;;;38.88;;
16039;SDS011;8124;48.634;8.120;2023-07-13T02:03:52;44.47;;;39.30;;
16039;SDS011;8124;48.634;8.120;2023-07-13T02:08:57;50.45;;;39.42;;
16039;SDS011;8124;48.634;8.120;2023-07-13T02:14:00;44.50;;;38.83;;
16039;SDS011;8124;48.634;8.120;2023-07-13T02:19:04;43.85;;;38.92;;
16039;SDS011;8124;48.634;8.120;2023-07-13T02:24:09;43.70;;;38.83;;
16039;SDS011;8124;48.634;8.120;2023-07-13T02:29:19;45.17;;;39.03;;
16039;SDS011;8124;48.634;8.120;2023-07-13T02:34:21;43.22;;;38.60;;
16039;SDS011;8124;48.634;8.120;2023-07-13T02:39:26;43.22;;;38.53;;
16039;SDS011;8124;48.634;8.120;2023-07-13T02:44:29;44.10;;;38.38;;
16039;SDS011;8124;48.634;8.120;2023-07-13T02:49:32;42.90;;;38.28;;
16039;SDS011;8124;48.634;8.120;2023-07-13T02:54:36;43.20;;;38.35;;
16039;SDS011;8124;48.634;8.120;2023-07-13T02:59:39;44.88;;;38.90;;
16039;SDS011;8124;48.634;8.120;2023-07-13T03:04:42;43.60;;;38.90;;
16039;SDS011;8124;48.634;8.120;2023-07-13T03:09:47;43.92;;;38.42;;
16039;SDS011;8124;48.634;8.120;2023-07-13T03:14:50;44.42;;;39.00;;
16039;SDS011;8124;48.634;8.120;2023-07-13T03:19:54;43.83;;;38.75;;
16039;SDS011;8124;48.634;8.120;2023-07-13T03:25:00;43.85;;;39.03;;
16039;SDS011;8124;48.634;8.120;2023-07-13T03:30:03;43.50;;;38.35;;
16039;SDS011;8124;48.634;8.120;2023-07-13T03:35:09;43.83;;;39.13;;
16039;SDS011;8124;48.634;8.120;2023-07-13T03:40:14;43.20;;;38.50;;
16039;SDS011;8124;48.634;8.120;2023-07-13T03:45:19;45.30;;;38.58;;
16039;SDS011;8124;48.634;8.120;2023-07-13T03:50:22;47.30;;;38.85;;
16039;SDS011;8124;48.634;8.120;2023-07-13T03:55:26;42.78;;;38.13;;
16039;SDS011;8124;48.634;8.120;2023-07-13T04:00:29;43.00;;;38.30;;
16039;SDS011;8124;48.634;8.120;2023-07-13T04:05:32;43.72;;;38.97;;
16039;SDS011;8124;48.634;8.120;2023-07-13T04:10:37;44.58;;;38.20;;
16039;SDS011;8124;48.634;8.120;2023-07-13T04:15:40;45.65;;;38.45;;
16039;SDS011;8124;48.634;8.120;2023-07-13T04:20:42;45.50;;;38.22;;
16039;SDS011;8124;48.634;8.120;2023-07-13T04:25:48;42.65;;;37.95;;
16039;SDS011;8124;48.634;8.120;2023-07-13T04:30:54;43.00;;;38.30;;
16039;SDS011;8124;48.634;8.120;2023-07-13T04:35:57;43.60;;;37.88;;
16039;SDS011;8124;48.634;8.120;2023-07-13T04:41:02;44.67;;;39.40;;
16039;SDS011;8124;48.634;8.120;2023-07-13T04:46:07;42.72;;;37.95;;
16039;SDS011;8124;48.634;8.120;2023-07-13T04:51:13;42.80;;;38.10;;
16039;SDS011;8124;48.634;8.120;2023-07-13T04:56:18;43.03;;;38.25;;
16039;SDS011;8124;48.634;8.120;2023-07-13T05:01:21;45.65;;;38.90;;
16039;SDS011;8124;48.634;8.120;2023-07-13T05:06:24;44.22;;;38.47;;
16039;SDS011;8124;48.634;8.120;2023-07-13T05:11:29;43.45;;;38.13;;
16039;SDS011;8124;48.634;8.120;2023-07-13T05:16:31;43.28;;;38.00;;
16039;SDS011;8124;48.634;8.120;2023-07-13T05:21:34;44.03;;;38.17;;
16039;SDS011;8124;48.634;8.120;2023-07-13T05:26:39;44.97;;;38.25;;
16039;SDS011;8124;48.634;8.120;2023-07-13T05:31:42;44.53;;;38.20;;
16039;SDS011;8124;48.634;8.120;2023-07-13T05:36:45;43.13;;;38.40;;
16039;SDS011;8124;48.634;8.120;2023-07-13T05:41:49;42.97;;;38.30;;
16039;SDS011;8124;48.634;8.120;2023-07-13T05:46:52;43.45;;;38.13;;
16039;SDS011;8124;48.634;8.120;2023-07-13T05:51:56;43.53;;;38.72;;
16039;SDS011;8124;48.634;8.120;2023-07-13T05:57:00;45.08;;;38.22;;
16039;SDS011;8124;48.634;8.120;2023-07-13T06:02:03;43.20;;;38.50;;
16039;SDS011;8124;48.634;8.120;2023-07-13T06:07:07;42.95;;;38.25;;
16039;SDS011;8124;48.634;8.120;2023-07-13T06:12:11;47.90;;;38.75;;
16039;SDS011;8124;48.634;8.120;2023-07-13T06:17:14;45.33;;;38.75;;
16039;SDS011;8124;48.634;8.120;2023-07-13T06:22:17;45.05;;;39.08;;
16039;SDS011;8124;48.634;8.120;2023-07-13T06:27:22;45.05;;;38.80;;
16039;SDS011;8124;48.634;8.120;2023-07-13T06:32:25;45.25;;;39.08;;
16039;SDS011;8124;48.634;8.120;2023-07-13T06:37:28;44.75;;;39.78;;
16039;SDS011;8124;48.634;8.120;2023-07-13T06:42:33;46.58;;;39.30;;
16039;SDS011;8124;48.634;8.120;2023-07-13T06:47:36;44.30;;;39.08;;
16039;SDS011;8124;48.634;8.120;2023-07-13T06:52:39;47.50;;;39.33;;
16039;SDS011;8124;48.634;8.120;2023-07-13T06:57:43;44.22;;;39.03;;
16039;SDS011;8124;48.634;8.120;2023-07-13T07:02:46;43.88;;;39.15;;
16039;SDS011;8124;48.634;8.120;2023-07-13T07:07:49;45.20;;;38.97;;
16039;SDS011;8124;48.634;8.120;2023-07-13T07:12:54;43.95;;;39.15;;
16039;SDS011;8124;48.634;8.120;2023-07-13T07:17:58;45.78;;;39.20;;
16039;SDS011;8124;48.634;8.120;2023-07-13T07:23:01;43.97;;;38.92;;
16039;SDS011;8124;48.634;8.120;2023-07-13T07:28:06;44.20;;;39.38;;
16039;SDS011;8124;48.634;8.120;2023-07-13T07:33:12;44.38;;;39.38;;
16039;SDS011;8124;48.634;8.120;2023-07-13T07:38:15;46.50;;;41.10;;
16039;SDS011;8124;48.634;8.120;2023-07-13T07:43:19;45.47;;;39.38;;
16039;SDS011;8124;48.634;8.120;2023-07-13T07:48:22;46.63;;;39.58;;
16039;SDS011;8124;48.634;8.120;2023-07-13T07:53:25;46.70;;;40.42;;
16039;SDS011;8124;48.634;8.120;2023-07-13T07:58:30;44.90;;;40.00;;
16039;SDS011;8124;48.634;8.120;2023-07-13T08:03:35;46.90;;;40.88;;
16039;SDS011;8124;48.634;8.120;2023-07-13T08:08:41;44.60;;;39.72;;
16039;SDS011;8124;48.634;8.120;2023-07-13T08:13:46;46.20;;;39.75;;
16039;SDS011;8124;48.634;8.120;2023-07-13T08:18:51;44.35;;;39.55;;
16039;SDS011;8124;48.634;8.120;2023-07-13T08:23:55;45.50;;;39.90;;
16039;SDS011;8124;48.634;8.120;2023-07-13T08:28:59;45.35;;;40.15;;
16039;SDS011;8124;48.634;8.120;2023-07-13T08:34:03;47.30;;;39.75;;
16039;SDS011;8124;48.634;8.120;2023-07-13T08:39:06;45.30;;;40.35;;
16039;SDS011;8124;48.634;8.120;2023-07-13T08:44:26;45.00;;;39.40;;
16039;SDS011;8124;48.634;8.120;2023-07-13T08:49:32;47.45;;;40.05;;
16039;SDS011;8124;48.634;8.120;2023-07-13T08:54:38;44.33;;;39.47;;
16039;SDS011;8124;48.634;8.120;2023-07-13T08:59:47;45.30;;;39.78;;
16039;SDS011;8124;48.634;8.120;2023-07-13T09:04:52;45.25;;;40.35;;
16039;SDS011;8124;48.634;8.120;2023-07-13T09:10:02;44.78;;;39.97;;
16039;SDS011;8124;48.634;8.120;2023-07-13T09:15:22;45.17;;;39.55;;
16039;SDS011;8124;48.634;8.120;2023-07-13T09:20:29;44.42;;;39.55;;
16039;SDS011;8124;48.634;8.120;2023-07-13T09:25:36;44.22;;;39.28;;
16039;SDS011;8124;48.634;8.120;2023-07-13T09:30:45;45.17;;;40.00;;
16039;SDS011;8124;48.634;8.120;2023-07-13T09:35:54;46.90;;;40.42;;
16039;SDS011;8124;48.634;8.120;2023-07-13T09:41:01;45.63;;;40.17;;
16039;SDS011;8124;48.634;8.120;2023-07-13T09:46:20;44.17;;;39.42;;
16039;SDS011;8124;48.634;8.120;2023-07-13T09:51:24;44.75;;;39.78;;
16039;SDS011;8124;48.634;8.120;2023-07-13T09:56:28;45.00;;;40.17;;
16039;SDS011;8124;48.634;8.120;2023-07-13T10:01:34;44.70;;;39.80;;
16039;SDS011;8124;48.634;8.120;2023-07-13T10:06:38;45.30;;;40.28;;
16039;SDS011;8124;48.634;8.120;2023-07-13T10:11:44;44.70;;;39.85;;
16039;SDS011;8124;48.634;8.120;2023-07-13T10:16:49;45.60;;;40.40;;
16039;SDS011;8124;48.634;8.120;2023-07-13T10:21:54;46.40;;;40.05;;
16039;SDS011;8124;48.634;8.120;2023-07-13T10:27:10;44.90;;;39.85;;
16039;SDS011;8124;48.634;8.120;2023-07-13T10:32:20;45.47;;;40.08;;
16039;SDS011;8124;48.634;8.120;2023-07-13T10:37:27;46.47;;;40.78;;
16039;SDS011;8124;48.634;8.120;2023-07-13T10:42:36;45.13;;;40.25;;
16039;SDS011;8124;48.634;8.120;2023-07-13T10:47:45;45.42;;;40.20;;
16039;SDS011;8124;48.634;8.120;2023-07-13T10:52:49;45.25;;;40.35;;
16039;SDS011;8124;48.634;8.120;2023-07-13T10:57:59;44.90;;;40.00;;
16039;SDS011;8124;48.634;8.120;2023-07-13T11:03:04;45.30;;;40.42;;
16039;SDS011;8124;48.634;8.120;2023-07-13T11:08:16;45.13;;;40.30;;
16039;SDS011;8124;48.634;8.120;2023-07-13T11:13:37;45.25;;;40.35;;
16039;SDS011;8124;48.634;8.120;2023-07-13T11:24:56;46.97;;;40.90;;
16039;SDS011;8124;48.634;8.120;2023-07-13T11:35:36;45.47;;;40.55;;
16039;SDS011;8124;48.634;8.120;2023-07-13T11:40:41;45.90;;;40.92;;
16039;SDS011;8124;48.634;8.120;2023-07-13T11:45:56;45.40;;;40.60;;
16039;SDS011;8124;48.634;8.120;2023-07-13T11:51:01;45.17;;;40.38;;
16039;SDS011;8124;48.634;8.120;2023-07-13T11:56:07;47.13;;;40.33;;
16039;SDS011;8124;48.634;8.120;2023-07-13T12:01:15;49.58;;;40.53;;
16039;SDS011;8124;48.634;8.120;2023-07-13T12:06:27;47.70;;;40.83;;
16039;SDS011;8124;48.634;8.120;2023-07-13T12:11:34;45.50;;;40.60;;
16039;SDS011;8124;48.634;8.120;2023-07-13T12:16:42;45.83;;;40.92;;
16039;SDS011;8124;48.634;8.120;2023-07-13T12:21:47;45.92;;;40.92;;
16039;SDS011;8124;48.634;8.120;2023-07-13T12:26:53;44.47;;;39.72;;
16039;SDS011;8124;48.634;8.120;2023-07-13T12:32:00;45.15;;;39.97;;
16039;SDS011;8124;48.634;8.120;2023-07-13T12:37:08;44.65;;;39.72;;
16039;SDS011;8124;48.634;8.120;2023-07-13T12:42:18;48.33;;;41.40;;
16039;SDS011;8124;48.634;8.120;2023-07-13T12:47:25;44.72;;;39.83;;
16039;SDS011;8124;48.634;8.120;2023-07-13T12:52:30;48.40;;;40.22;;
16039;SDS011;8124;48.634;8.120;2023-07-13T12:57:39;45.85;;;40.15;;
16039;SDS011;8124;48.634;8.120;2023-07-13T13:02:44;45.25;;;40.30;;
16039;SDS011;8124;48.634;8.120;2023-07-13T13:07:49;45.00;;;40.10;;
16039;SDS011;8124;48.634;8.120;2023-07-13T13:12:52;47.15;;;39.67;;
16039;SDS011;8124;48.634;8.120;2023-07-13T13:17:55;45.33;;;40.45;;
16039;SDS011;8124;48.634;8.120;2023-07-13T13:23:01;45.08;;;40.05;;
16039;SDS011;8124;48.634;8.120;2023-07-13T13:28:04;44.67;;;39.83;;
16039;SDS011;8124;48.634;8.120;2023-07-13T13:33:08;44.72;;;39.83;;
16039;SDS011;8124;48.634;8.120;2023-07-13T13:38:15;44.90;;;40.00;;
16039;SDS011;8124;48.634;8.120;2023-07-13T13:43:21;44.80;;;40.00;;
16039;SDS011;8124;48.634;8.120;2023-07-13T13:48:29;44.92;;;40.03;;
16039;SDS011;8124;48.634;8.120;2023-07-13T13:53:35;44.85;;;40.10;;
16039;SDS011;8124;48.634;8.120;2023-07-13T13:58:39;45.08;;;40.17;;
16039;SDS011;8124;48.634;8.120;2023-07-13T14:03:43;46.25;;;40.45;;
16039;SDS011;8124;48.634;8.120;2023-07-13T14:08:48;45.20;;;40.10;;
16039;SDS011;8124;48.634;8.120;2023-07-13T14:13:52;44.42;;;39.65;;
16039;SDS011;8124;48.634;8.120;2023-07-13T14:18:57;45.08;;;40.13;;
16039;SDS011;8124;48.634;8.120;2023-07-13T14:24:03;45.05;;;39.95;;
16039;SDS011;8124;48.634;8.120;2023-07-13T14:29:11;44.88;;;39.97;;
16039;SDS011;8124;48.634;8.120;2023-07-13T14:34:16;46.97;;;40.72;;
16039;SDS011;8124;48.634;8.120;2023-07-13T14:39:21;45.45;;;40.55;;
16039;SDS011;8124;48.634;8.120;2023-07-13T14:44:26;44.88;;;40.13;;
16039;SDS011;8124;48.634;8.120;2023-07-13T14:49:31;45.03;;;40.13;;
16039;SDS011;8124;48.634;8.120;2023-07-13T14:54:38;48.50;;;40.15;;
16039;SDS011;8124;48.634;8.120;2023-07-13T14:59:42;44.95;;;40.15;;
16039;SDS011;8124;48.634;8.120;2023-07-13T15:04:46;45.90;;;40.90;;
16039;SDS011;8124;48.634;8.120;2023-07-13T15:09:51;47.00;;;40.53;;
16039;SDS011;8124;48.634;8.120;2023-07-13T15:14:54;45.45;;;40.65;;
16039;SDS011;8124;48.634;8.120;2023-07-13T15:19:57;47.00;;;41.78;;
16039;SDS011;8124;48.634;8.120;2023-07-13T15:25:02;46.15;;;40.92;;
16039;SDS011;8124;48.634;8.120;2023-07-13T15:30:08;45.60;;;40.70;;
16039;SDS011;8124;48.634;8.120;2023-07-13T15:35:16;45.35;;;40.55;;
16039;SDS011;8124;48.634;8.120;2023-07-13T15:40:22;46.22;;;41.17;;
16039;SDS011;8124;48.634;8.120;2023-07-13T15:45:26;46.70;;;41.60;;
16039;SDS011;8124;48.634;8.120;2023-07-13T15:50:29;45.55;;;40.55;;
16039;SDS011;8124;48.634;8.120;2023-07-13T15:55:45;45.63;;;40.63;;
16039;SDS011;8124;48.634;8.120;2023-07-13T16:00:49;46.17;;;41.17;;
16039;SDS011;8124;48.634;8.120;2023-07-13T16:05:53;46.28;;;40.67;;
16039;SDS011;8124;48.634;8.120;2023-07-13T16:10:58;45.20;;;40.40;;
16039;SDS011;8124;48.634;8.120;2023-07-13T16:16:06;46.33;;;40.42;;
16039;SDS011;8124;48.634;8.120;2023-07-13T16:21:11;45.70;;;40.80;;
16039;SDS011;8124;48.634;8.120;2023-07-13T16:26:22;45.33;;;40.42;;
16039;SDS011;8124;48.634;8.120;2023-07-13T16:31:30;45.72;;;40.72;;
16039;SDS011;8124;48.634;8.120;2023-07-13T16:36:35;48.08;;;40.67;;
16039;SDS011;8124;48.634;8.120;2023-07-13T16:41:40;45.50;;;40.65;;
16039;SDS011;8124;48.634;8.120;2023-07-13T16:46:45;45.50;;;40.60;;
16039;SDS011;8124;48.634;8.120;2023-07-13T16:51:48;45.78;;;40.92;;
16039;SDS011;8124;48.634;8.120;2023-07-13T16:56:53;45.92;;;40.92;;
16039;SDS011;8124;48.634;8.120;2023-07-13T17:01:56;46.13;;;40.47;;
16039;SDS011;8124;48.634;8.120;2023-07-13T17:07:01;48.97;;;40.53;;
16039;SDS011;8124;48.634;8.120;2023-07-13T17:12:08;45.33;;;40.50;;
16039;SDS011;8124;48.634;8.120;2023-07-13T17:17:13;46.17;;;41.20;;
16039;SDS011;8124;48.634;8.120;2023-07-13T17:22:18;47.55;;;41.65;;
16039;SDS011;8124;48.634;8.120;2023-07-13T17:27:23;45.95;;;40.95;;
16039;SDS011;8124;48.634;8.120;2023-07-13T17:32:26;46.33;;;41.50;;
16039;SDS011;8124;48.634;8.120;2023-07-13T17:37:30;46.38;;;41.28;;
16039;SDS011;8124;48.634;8.120;2023-07-13T17:42:34;45.35;;;40.53;;
16039;SDS011;8124;48.634;8.120;2023-07-13T17:47:40;46.20;;;41.33;;
16039;SDS011;8124;48.634;8.120;2023-07-13T17:52:43;45.80;;;40.85;;
16039;SDS011;8124;48.634;8.120;2023-07-13T17:57:48;45.75;;;40.85;;
16039;SDS011;8124;48.634;8.120;2023-07-13T18:02:51;45.58;;;40.67;;
16039;SDS011;8124;48.634;8.120;2023-07-13T18:07:55;45.65;;;40.83;;
16039;SDS011;8124;48.634;8.120;2023-07-13T18:12:59;45.80;;;40.90;;
16039;SDS011;8124;48.634;8.120;2023-07-13T18:18:03;49.40;;;41.83;;
16039;SDS011;8124;48.634;8.120;2023-07-13T18:23:08;45.83;;;40.92;;
16039;SDS011;8124;48.634;8.120;2023-07-13T18:28:19;45.85;;;40.85;;
16039;SDS011;8124;48.634;8.120;2023-07-13T18:33:24;45.65;;;40.65;;
16039;SDS011;8124;48.634;8.120;2023-07-13T18:38:31;45.58;;;40.72;;
16039;SDS011;8124;48.634;8.120;2023-07-13T18:43:37;45.45;;;40.65;;
16039;SDS011;8124;48.634;8.120;2023-07-13T18:48:40;45.72;;;40.83;;
16039;SDS011;8124;48.634;8.120;2023-07-13T18:53:43;46.47;;;41.53;;
16039;SDS011;8124;48.634;8.120;2023-07-13T18:58:50;45.75;;;40.85;;
16039;SDS011;8124;48.634;8.120;2023-07-13T19:03:53;45.60;;;40.70;;
16039;SDS011;8124;48.634;8.120;2023-07-13T19:08:57;45.58;;;40.67;;
16039;SDS011;8124;48.634;8.120;2023-07-13T19:14:01;45.50;;;40.63;;
16039;SDS011;8124;48.634;8.120;2023-07-13T19:19:06;45.00;;;40.20;;
16039;SDS011;8124;48.634;8.120;2023-07-13T19:24:15;45.28;;;40.47;;
16039;SDS011;8124;48.634;8.120;2023-07-13T19:29:24;45.53;;;40.72;;
16039;SDS011;8124;48.634;8.120;2023-07-13T19:34:28;45.63;;;40.63;;
16039;SDS011;8124;48.634;8.120;2023-07-13T19:39:33;45.15;;;40.38;;
16039;SDS011;8124;48.634;8.120;2023-07-13T19:44:41;45.75;;;40.90;;
16039;SDS011;8124;48.634;8.120;2023-07-13T19:49:44;45.45;;;40.65;;
16039;SDS011;8124;48.634;8.120;2023-07-13T19:54:49;45.47;;;40.67;;
16039;SDS011;8124;48.634;8.120;2023-07-13T19:59:55;45.25;;;40.35;;
16039;SDS011;8124;48.634;8.120;2023-07-13T20:05:00;45.22;;;40.42;;
16039;SDS011;8124;48.634;8.120;2023-07-13T20:10:15;46.33;;;41.25;;
16039;SDS011;8124;48.634;8.120;2023-07-13T20:15:23;44.92;;;40.17;;
16039;SDS011;8124;48.634;8.120;2023-07-13T20:20:29;45.45;;;40.47;;
16039;SDS011;8124;48.634;8.120;2023-07-13T20:25:34;45.45;;;40.50;;
16039;SDS011;8124;48.634;8.120;2023-07-13T20:30:40;45.35;;;40.35;;
16039;SDS011;8124;48.634;8.120;2023-07-13T20:35:45;45.05;;;40.15;;
16039;SDS011;8124;48.634;8.120;2023-07-13T20:40:49;44.97;;;40.17;;
16039;SDS011;8124;48.634;8.120;2023-07-13T20:45:56;44.90;;;40.03;;
16039;SDS011;8124;48.634;8.120;2023-07-13T20:51:01;45.45;;;39.92;;
16039;SDS011;8124;48.634;8.120;2023-07-13T20:56:08;48.20;;;39.83;;
16039;SDS011;8124;48.634;8.120;2023-07-13T21:01:17;44.75;;;39.95;;
16039;SDS011;8124;48.634;8.120;2023-07-13T21:06:24;46.72;;;39.58;;
16039;SDS011;8124;48.634;8.120;2023-07-13T21:11:30;44.92;;;40.10;;
16039;SDS011;8124;48.634;8.120;2023-07-13T21:16:34;44.58;;;39.83;;
16039;SDS011;8124;48.634;8.120;2023-07-13T21:21:37;44.42;;;39.65;;
16039;SDS011;8124;48.634;8.120;2023-07-13T21:26:40;45.00;;;39.83;;
16039;SDS011;8124;48.634;8.120;2023-07-13T21:31:44;44.22;;;39.42;;
16039;SDS011;8124;48.634;8.120;2023-07-13T21:36:47;45.35;;;40.35;;
16039;SDS011;8124;48.634;8.120;2023-07-13T21:41:52;43.90;;;39.20;;
16039;SDS011;8124;48.634;8.120;2023-07-13T21:46:56;44.35;;;39.55;;
16039;SDS011;8124;48.634;8.120;2023-07-13T21:51:59;44.10;;;39.33;;
16039;SDS011;8124;48.634;8.120;2023-07-13T21:57:04;44.15;;;39.45;;
16039;SDS011;8124;48.634;8.120;2023-07-13T22:02:10;45.10;;;39.50;;
16039;SDS011;8124;48.634;8.120;2023-07-13T22:07:14;45.60;;;39.55;;
16039;SDS011;8124;48.634;8.120;2023-07-13T22:12:17;45.75;;;39.47;;
16039;SDS011;8124;48.634;8.120;2023-07-13T22:17:21;43.97;;;39.25;;
16039;SDS011;8124;48.634;8.120;2023-07-13T22:22:24;45.45;;;39.67;;
16039;SDS011;8124;48.634;8.120;2023-07-13T22:27:28;44.08;;;39.30;;
16039;SDS011;8124;48.634;8.120;2023-07-13T22:32:33;44.78;;;40.00;;
16039;SDS011;8124;48.634;8.120;2023-07-13T22:37:36;46.92;;;39.30;;
16039;SDS011;8124;48.634;8.120;2023-07-13T22:42:39;44.72;;;39.78;;
16039;SDS011;8124;48.634;8.120;2023-07-13T22:47:43;44.47;;;39.35;;
16039;SDS011;8124;48.634;8.120;2023-07-13T22:52:46;43.63;;;38.97;;
16039;SDS011;8124;48.634;8.120;2023-07-13T22:57:49;45.92;;;39.15;;
16039;SDS011;8124;48.634;8.120;2023-07-13T23:02:54;44.15;;;39.13;;
16039;SDS011;8124;48.634;8.120;2023-07-13T23:07:57;45.35;;;39.22;;
16039;SDS011;8124;48.634;8.120;2023-07-13T23:13:00;45.10;;;39.05;;
16039;SDS011;8124;48.634;8.120;2023-07-13T23:18:05;43.97;;;39.28;;
16039;SDS011;8124;48.634;8.120;2023-07-13T23:23:13;43.80;;;39.10;;
16039;SDS011;8124;48.634;8.120;2023-07-13T23:28:18;45.00;;;38.53;;
16039;SDS011;8124;48.634;8.120;2023-07-13T23:33:24;43.55;;;38.85;;
16039;SDS011;8124;48.634;8.120;2023-07-13T23:38:28;44.28;;;38.72;;
16039;SDS011;8124;48.634;8.120;2023-07-13T23:43:31;44.63;;;39.15;;
16039;SDS011;8124;48.634;8.120;2023-07-13T23:48:36;44.20;;;39.05;;
16039;SDS011;8124;48.634;8.120;2023-07-13T23:53:38;43.30;;;38.63;;
16039;SDS011;8124;48.634;8.120;2023-07-13T23:58:41;45.60;;;38.97;;
